Aviation Digital Data Service (ADDS)

Output produced by METARs form (1926 UTC 18 June 2019)
found at http://www.aviationweather.gov/metar/data/
 
Forecast for: ZGHA (HUANGHUA/CHANGSH, CN)
Text: TAF ZGHA 181445Z 1818/1918 35003MPS 5000 BR NSC TX33/1907Z TN24/1822Z
Forecast period: 1800 UTC 18 June 2019 to 1800 UTC 19 June 2019
Forecast type: FROM: standard forecast or significant change
Winds: from the N (350 degrees) at 7 MPH (6 knots; 3.1 m/s)
Visibility: 3 miles (5 km)
Ceiling: unknown
Clouds: missing
Weather: BR  (mist)